This is the latest recevied weather packets stored in our database for station/object W1ERB-13. If no packets are shown the sender has not sent any weather packets the latest 10 day(s).
| Time | Temp. | Humidity | Pressure | Rain* | Wind** | Luminosity | Snow |
|---|---|---|---|---|---|---|---|
| 1778093394 | 14.44° C | 96% | 1007.5 hPa | 0 mm | - | 131 W/m² | - |
| 1778093092 | 15° C | 96% | 1007.4 hPa | 1.27 mm | - | 174 W/m² | - |
| 1778092789 | 14.44° C | 96% | 1007.4 hPa | 1.27 mm | - | 170 W/m² | - |
| 1778092484 | 15° C | 96% | 1007.9 hPa | 1.78 mm | - | 141 W/m² | - |
| 1778092181 | 15° C | 95% | 1008 hPa | 3.05 mm | - | 145 W/m² | - |
| 1778091879 | 15° C | 95% | 1007.9 hPa | 3.05 mm | - | 112 W/m² | - |
| 1778091576 | 15° C | 95% | 1007.7 hPa | 1.78 mm | - | 127 W/m² | - |
| 1778091274 | 15° C | 94% | 1007.9 hPa | 0 mm | - | 96 W/m² | - |
| 1778090970 | 15° C | 94% | 1007.9 hPa | 1.78 mm | - | 91 W/m² | - |
| 1778090666 | 15° C | 94% | 1007.5 hPa | 1.78 mm | - | 118 W/m² | - |
| 1778090358 | 15° C | 94% | 1007.5 hPa | 0 mm | - | 172 W/m² | - |
| 1778090054 | 15° C | 94% | 1007.6 hPa | 1.27 mm | - | 144 W/m² | - |
| 1778089751 | 15° C | 94% | 1007.8 hPa | 1.27 mm | - | 124 W/m² | - |
| 1778089449 | 15° C | 93% | 1007.7 hPa | 0 mm | - | 126 W/m² | - |
| 1778089146 | 15° C | 93% | 1008.1 hPa | 1.78 mm | - | 110 W/m² | - |
| 1778088843 | 15° C | 93% | 1008.2 hPa | 1.78 mm | - | 117 W/m² | - |
| 1778088540 | 15° C | 93% | 1008.2 hPa | 0 mm | - | 92 W/m² | - |
| 1778088236 | 15° C | 92% | 1008.4 hPa | 1.27 mm | - | 93 W/m² | - |
| 1778087934 | 15° C | 92% | 1008.5 hPa | 1.27 mm | - | 68 W/m² | - |
| 1778087630 | 15° C | 92% | 1008.6 hPa | 0 mm | - | 66 W/m² | - |
| 1778087328 | 15.56° C | 91% | 1008.7 hPa | 1.78 mm | - | 58 W/m² | - |
| 1778087024 | 15.56° C | 90% | 1008.7 hPa | 1.78 mm | - | 48 W/m² | - |
| 1778086724 | 15.56° C | 89% | 1008.8 hPa | 3.05 mm | - | 61 W/m² | - |
| 1778086422 | 16.11° C | 87% | 1008.8 hPa | 1.27 mm | - | 69 W/m² | - |
| 1778086118 | 16.67° C | 84% | 1009 hPa | 0 mm | - | 58 W/m² | - |
* Rain latest hour (hover to see other rain measurements)
** Current wind speed in m/s (hover to see current wind gust speed)